sensor_id;sensor_type;location;lat;lon;timestamp;pressure;altitude;pressure_sealevel;temperature;humidity
71976;BME280;60680;52.182;5.398;2022-07-23T00:01:20;101992.38;;;17.09;71.75
71976;BME280;60680;52.182;5.398;2022-07-23T00:03:53;101990.59;;;17.09;71.95
71976;BME280;60680;52.182;5.398;2022-07-23T00:06:21;101979.50;;;17.04;71.92
71976;BME280;60680;52.182;5.398;2022-07-23T00:08:48;101983.34;;;16.99;72.21
71976;BME280;60680;52.182;5.398;2022-07-23T00:11:14;101989.38;;;17.01;72.56
71976;BME280;60680;52.182;5.398;2022-07-23T00:13:41;101986.66;;;17.02;72.06
71976;BME280;60680;52.182;5.398;2022-07-23T00:16:08;101983.16;;;17.02;72.18
71976;BME280;60680;52.182;5.398;2022-07-23T00:18:34;101983.91;;;17.04;71.88
71976;BME280;60680;52.182;5.398;2022-07-23T00:21:01;101980.34;;;17.05;71.71
71976;BME280;60680;52.182;5.398;2022-07-23T00:23:28;101982.50;;;16.98;72.46
71976;BME280;60680;52.182;5.398;2022-07-23T00:25:55;101980.81;;;16.97;72.47
71976;BME280;60680;52.182;5.398;2022-07-23T00:28:21;101977.69;;;16.90;72.71
71976;BME280;60680;52.182;5.398;2022-07-23T00:30:48;101982.53;;;16.82;73.20
71976;BME280;60680;52.182;5.398;2022-07-23T00:33:14;101978.25;;;16.81;72.61
71976;BME280;60680;52.182;5.398;2022-07-23T00:35:41;101966.69;;;16.84;72.72
71976;BME280;60680;52.182;5.398;2022-07-23T00:38:08;101967.53;;;16.84;72.50
71976;BME280;60680;52.182;5.398;2022-07-23T00:40:38;101971.59;;;16.74;73.21
71976;BME280;60680;52.182;5.398;2022-07-23T00:43:05;101972.16;;;16.65;73.66
71976;BME280;60680;52.182;5.398;2022-07-23T00:45:32;101966.97;;;16.63;74.31
71976;BME280;60680;52.182;5.398;2022-07-23T00:47:59;101967.44;;;16.56;74.11
71976;BME280;60680;52.182;5.398;2022-07-23T00:50:26;101968.94;;;16.60;74.39
71976;BME280;60680;52.182;5.398;2022-07-23T00:52:53;101960.94;;;16.61;74.42
71976;BME280;60680;52.182;5.398;2022-07-23T00:55:19;101956.66;;;16.60;74.15
71976;BME280;60680;52.182;5.398;2022-07-23T00:57:46;101969.09;;;16.57;74.20
71976;BME280;60680;52.182;5.398;2022-07-23T01:00:14;101968.34;;;16.55;74.04
71976;BME280;60680;52.182;5.398;2022-07-23T01:02:41;101964.03;;;16.54;74.24
71976;BME280;60680;52.182;5.398;2022-07-23T01:05:08;101955.66;;;16.47;74.54
71976;BME280;60680;52.182;5.398;2022-07-23T01:07:35;101951.25;;;16.47;74.28
71976;BME280;60680;52.182;5.398;2022-07-23T01:10:02;101952.53;;;16.40;74.41
71976;BME280;60680;52.182;5.398;2022-07-23T01:12:30;101947.44;;;16.37;74.34
71976;BME280;60680;52.182;5.398;2022-07-23T01:14:58;101945.50;;;16.41;74.16
71976;BME280;60680;52.182;5.398;2022-07-23T01:17:25;101942.78;;;16.42;74.39
71976;BME280;60680;52.182;5.398;2022-07-23T01:19:52;101950.00;;;16.39;74.17
71976;BME280;60680;52.182;5.398;2022-07-23T01:22:20;101953.75;;;16.35;74.86
71976;BME280;60680;52.182;5.398;2022-07-23T01:24:47;101955.88;;;16.28;74.43
71976;BME280;60680;52.182;5.398;2022-07-23T01:27:14;101949.66;;;16.29;74.21
71976;BME280;60680;52.182;5.398;2022-07-23T01:29:40;101949.75;;;16.27;74.69
71976;BME280;60680;52.182;5.398;2022-07-23T01:32:07;101950.78;;;16.25;75.11
71976;BME280;60680;52.182;5.398;2022-07-23T01:34:33;101938.66;;;16.22;74.66
71976;BME280;60680;52.182;5.398;2022-07-23T01:36:59;101944.53;;;16.12;75.61
71976;BME280;60680;52.182;5.398;2022-07-23T01:39:26;101948.53;;;16.03;75.83
71976;BME280;60680;52.182;5.398;2022-07-23T01:41:53;101938.09;;;16.01;75.68
71976;BME280;60680;52.182;5.398;2022-07-23T01:44:19;101939.88;;;16.01;75.48
71976;BME280;60680;52.182;5.398;2022-07-23T01:46:46;101938.84;;;16.03;75.18
71976;BME280;60680;52.182;5.398;2022-07-23T01:49:12;101939.63;;;16.05;75.08
71976;BME280;60680;52.182;5.398;2022-07-23T01:51:39;101932.50;;;16.07;74.53
71976;BME280;60680;52.182;5.398;2022-07-23T01:54:28;101940.91;;;15.98;75.39
71976;BME280;60680;52.182;5.398;2022-07-23T01:56:55;101936.31;;;16.02;75.36
71976;BME280;60680;52.182;5.398;2022-07-23T01:59:22;101941.91;;;15.96;75.76
71976;BME280;60680;52.182;5.398;2022-07-23T02:01:49;101941.13;;;15.94;74.95
71976;BME280;60680;52.182;5.398;2022-07-23T02:04:20;101934.97;;;15.95;75.24
71976;BME280;60680;52.182;5.398;2022-07-23T02:06:47;101937.09;;;15.88;74.88
71976;BME280;60680;52.182;5.398;2022-07-23T02:09:13;101945.13;;;15.85;75.52
71976;BME280;60680;52.182;5.398;2022-07-23T02:11:40;101932.09;;;15.83;75.63
71976;BME280;60680;52.182;5.398;2022-07-23T02:14:07;101944.47;;;15.81;75.30
71976;BME280;60680;52.182;5.398;2022-07-23T02:16:33;101942.75;;;15.80;75.02
71976;BME280;60680;52.182;5.398;2022-07-23T02:19:00;101940.03;;;15.82;75.53
71976;BME280;60680;52.182;5.398;2022-07-23T02:21:27;101928.78;;;15.80;75.09
71976;BME280;60680;52.182;5.398;2022-07-23T02:23:54;101929.28;;;15.70;75.09
71976;BME280;60680;52.182;5.398;2022-07-23T02:26:20;101938.88;;;15.70;75.91
71976;BME280;60680;52.182;5.398;2022-07-23T02:28:46;101930.34;;;15.66;75.83
71976;BME280;60680;52.182;5.398;2022-07-23T02:31:13;101928.50;;;15.68;75.88
71976;BME280;60680;52.182;5.398;2022-07-23T02:33:39;101931.34;;;15.64;76.32
71976;BME280;60680;52.182;5.398;2022-07-23T02:36:06;101934.56;;;15.53;76.54
71976;BME280;60680;52.182;5.398;2022-07-23T02:38:33;101926.16;;;15.46;76.66
71976;BME280;60680;52.182;5.398;2022-07-23T02:40:59;101929.88;;;15.42;76.70
71976;BME280;60680;52.182;5.398;2022-07-23T02:43:25;101926.59;;;15.39;76.55
71976;BME280;60680;52.182;5.398;2022-07-23T02:45:52;101928.91;;;15.45;76.42
71976;BME280;60680;52.182;5.398;2022-07-23T02:48:18;101936.53;;;15.49;76.53
71976;BME280;60680;52.182;5.398;2022-07-23T02:50:45;101945.22;;;15.50;76.49
71976;BME280;60680;52.182;5.398;2022-07-23T02:53:11;101946.91;;;15.51;76.31
71976;BME280;60680;52.182;5.398;2022-07-23T02:55:38;101945.31;;;15.48;76.26
71976;BME280;60680;52.182;5.398;2022-07-23T02:58:04;101952.66;;;15.42;76.06
71976;BME280;60680;52.182;5.398;2022-07-23T03:00:31;101949.25;;;15.40;75.88
71976;BME280;60680;52.182;5.398;2022-07-23T03:02:57;101945.94;;;15.36;76.05
71976;BME280;60680;52.182;5.398;2022-07-23T03:05:24;101945.53;;;15.28;76.58
71976;BME280;60680;52.182;5.398;2022-07-23T03:07:50;101940.09;;;15.31;76.26
71976;BME280;60680;52.182;5.398;2022-07-23T03:10:17;101949.84;;;15.29;77.04
71976;BME280;60680;52.182;5.398;2022-07-23T03:12:43;101960.31;;;15.29;76.62
71976;BME280;60680;52.182;5.398;2022-07-23T03:15:11;101963.63;;;15.33;76.25
71976;BME280;60680;52.182;5.398;2022-07-23T03:17:37;101955.16;;;15.27;76.03
71976;BME280;60680;52.182;5.398;2022-07-23T03:20:04;101961.34;;;15.26;75.97
71976;BME280;60680;52.182;5.398;2022-07-23T03:22:30;101964.28;;;15.20;76.49
71976;BME280;60680;52.182;5.398;2022-07-23T03:24:57;101960.34;;;15.12;76.79
71976;BME280;60680;52.182;5.398;2022-07-23T03:27:25;101961.38;;;15.09;77.04
71976;BME280;60680;52.182;5.398;2022-07-23T03:29:53;101964.00;;;15.09;77.02
71976;BME280;60680;52.182;5.398;2022-07-23T03:32:20;101968.38;;;15.08;77.21
71976;BME280;60680;52.182;5.398;2022-07-23T03:34:48;101968.22;;;15.12;77.17
71976;BME280;60680;52.182;5.398;2022-07-23T03:37:14;101967.53;;;15.08;76.64
71976;BME280;60680;52.182;5.398;2022-07-23T03:39:42;101977.09;;;15.09;77.47
71976;BME280;60680;52.182;5.398;2022-07-23T03:42:08;101969.25;;;15.09;76.84
71976;BME280;60680;52.182;5.398;2022-07-23T03:44:35;101972.22;;;15.01;77.49
71976;BME280;60680;52.182;5.398;2022-07-23T03:47:06;101967.59;;;15.06;76.65
71976;BME280;60680;52.182;5.398;2022-07-23T03:49:34;101967.53;;;15.08;76.63
71976;BME280;60680;52.182;5.398;2022-07-23T03:52:01;101964.44;;;15.00;77.04
71976;BME280;60680;52.182;5.398;2022-07-23T03:54:27;101965.69;;;14.93;77.61
71976;BME280;60680;52.182;5.398;2022-07-23T03:56:54;101958.84;;;14.90;76.75
71976;BME280;60680;52.182;5.398;2022-07-23T03:59:20;101958.75;;;14.92;76.98
71976;BME280;60680;52.182;5.398;2022-07-23T04:01:49;101953.50;;;14.92;77.09
71976;BME280;60680;52.182;5.398;2022-07-23T04:04:16;101946.72;;;14.87;76.96
71976;BME280;60680;52.182;5.398;2022-07-23T04:06:43;101949.66;;;14.81;77.60
71976;BME280;60680;52.182;5.398;2022-07-23T04:09:09;101945.03;;;14.86;77.49
71976;BME280;60680;52.182;5.398;2022-07-23T04:11:35;101950.72;;;14.95;77.38
71976;BME280;60680;52.182;5.398;2022-07-23T04:14:02;101950.66;;;14.96;76.96
71976;BME280;60680;52.182;5.398;2022-07-23T04:16:28;101945.50;;;14.95;77.23
71976;BME280;60680;52.182;5.398;2022-07-23T04:18:57;101950.66;;;14.96;76.87
71976;BME280;60680;52.182;5.398;2022-07-23T04:21:24;101952.41;;;14.96;77.18
71976;BME280;60680;52.182;5.398;2022-07-23T04:23:51;101951.81;;;14.91;77.50
71976;BME280;60680;52.182;5.398;2022-07-23T04:26:18;101953.44;;;14.93;77.35
71976;BME280;60680;52.182;5.398;2022-07-23T04:28:44;101954.28;;;14.94;77.75
71976;BME280;60680;52.182;5.398;2022-07-23T04:31:11;101957.91;;;14.91;77.91
71976;BME280;60680;52.182;5.398;2022-07-23T04:33:37;101954.56;;;14.87;78.52
71976;BME280;60680;52.182;5.398;2022-07-23T04:36:04;101959.75;;;14.89;78.58
71976;BME280;60680;52.182;5.398;2022-07-23T04:38:30;101956.47;;;14.85;78.75
71976;BME280;60680;52.182;5.398;2022-07-23T04:40:58;101956.34;;;14.87;78.46
71976;BME280;60680;52.182;5.398;2022-07-23T04:43:25;101958.75;;;14.92;78.81
71976;BME280;60680;52.182;5.398;2022-07-23T04:45:52;101955.03;;;14.96;78.22
71976;BME280;60680;52.182;5.398;2022-07-23T04:48:21;101964.53;;;14.98;78.01
71976;BME280;60680;52.182;5.398;2022-07-23T04:50:47;101966.06;;;15.02;78.37
71976;BME280;60680;52.182;5.398;2022-07-23T04:53:14;101965.84;;;15.07;77.99
71976;BME280;60680;52.182;5.398;2022-07-23T04:55:40;101966.69;;;15.07;78.35
71976;BME280;60680;52.182;5.398;2022-07-23T04:58:07;101967.44;;;15.09;78.70
71976;BME280;60680;52.182;5.398;2022-07-23T05:00:33;101972.69;;;15.09;78.56
71976;BME280;60680;52.182;5.398;2022-07-23T05:03:01;101977.78;;;15.13;78.94
71976;BME280;60680;52.182;5.398;2022-07-23T05:05:27;101973.22;;;15.16;79.12
71976;BME280;60680;52.182;5.398;2022-07-23T05:07:57;101969.66;;;15.17;78.75
71976;BME280;60680;52.182;5.398;2022-07-23T05:10:24;101973.22;;;15.16;78.88
71976;BME280;60680;52.182;5.398;2022-07-23T05:13:03;101975.53;;;15.22;78.83
71976;BME280;60680;52.182;5.398;2022-07-23T05:15:29;101971.59;;;15.31;78.86
71976;BME280;60680;52.182;5.398;2022-07-23T05:17:56;101977.41;;;15.36;79.35
71976;BME280;60680;52.182;5.398;2022-07-23T05:20:23;101979.19;;;15.36;78.82
71976;BME280;60680;52.182;5.398;2022-07-23T05:22:49;101980.66;;;15.41;78.51
71976;BME280;60680;52.182;5.398;2022-07-23T05:25:16;101972.63;;;15.44;79.20
71976;BME280;60680;52.182;5.398;2022-07-23T05:27:42;101972.47;;;15.47;78.63
71976;BME280;60680;52.182;5.398;2022-07-23T05:30:09;101981.13;;;15.49;78.96
71976;BME280;60680;52.182;5.398;2022-07-23T05:32:36;101981.63;;;15.56;79.01
71976;BME280;60680;52.182;5.398;2022-07-23T05:35:06;101985.03;;;15.58;78.82
71976;BME280;60680;52.182;5.398;2022-07-23T05:37:32;101989.00;;;15.65;78.51
71976;BME280;60680;52.182;5.398;2022-07-23T05:40:01;101991.47;;;15.68;78.70
71976;BME280;60680;52.182;5.398;2022-07-23T05:42:36;101995.56;;;15.74;79.14
71976;BME280;60680;52.182;5.398;2022-07-23T05:45:07;101999.72;;;15.78;79.07
71976;BME280;60680;52.182;5.398;2022-07-23T05:47:44;101997.72;;;15.83;78.55
71976;BME280;60680;52.182;5.398;2022-07-23T05:50:11;101991.53;;;15.84;79.00
71976;BME280;60680;52.182;5.398;2022-07-23T05:52:41;101989.16;;;15.80;78.04
71976;BME280;60680;52.182;5.398;2022-07-23T05:55:09;102000.84;;;15.90;78.10
71976;BME280;60680;52.182;5.398;2022-07-23T05:57:35;102003.81;;;16.00;77.58
71976;BME280;60680;52.182;5.398;2022-07-23T06:00:04;102005.06;;;16.08;77.67
71976;BME280;60680;52.182;5.398;2022-07-23T06:02:31;102004.16;;;16.09;77.76
71976;BME280;60680;52.182;5.398;2022-07-23T06:04:57;102001.44;;;16.27;77.35
71976;BME280;60680;52.182;5.398;2022-07-23T06:07:24;102007.00;;;16.52;76.68
71976;BME280;60680;52.182;5.398;2022-07-23T06:09:50;102007.06;;;16.67;74.85
71976;BME280;60680;52.182;5.398;2022-07-23T06:12:17;102004.06;;;16.89;74.65
71976;BME280;60680;52.182;5.398;2022-07-23T06:14:43;102004.16;;;16.71;74.60
71976;BME280;60680;52.182;5.398;2022-07-23T06:17:10;101998.44;;;16.65;75.45
71976;BME280;60680;52.182;5.398;2022-07-23T06:19:37;102004.53;;;16.65;74.97
71976;BME280;60680;52.182;5.398;2022-07-23T06:22:04;102002.66;;;16.67;75.67
71976;BME280;60680;52.182;5.398;2022-07-23T06:24:30;102002.56;;;16.69;75.34
71976;BME280;60680;52.182;5.398;2022-07-23T06:26:57;102007.63;;;16.72;75.08
71976;BME280;60680;52.182;5.398;2022-07-23T06:29:23;102009.28;;;16.75;75.23
71976;BME280;60680;52.182;5.398;2022-07-23T06:31:50;102006.28;;;16.81;75.01
71976;BME280;60680;52.182;5.398;2022-07-23T06:34:16;102006.88;;;16.86;74.61
71976;BME280;60680;52.182;5.398;2022-07-23T06:36:42;102011.13;;;16.88;74.77
71976;BME280;60680;52.182;5.398;2022-07-23T06:39:09;102010.91;;;16.91;74.48
71976;BME280;60680;52.182;5.398;2022-07-23T06:41:36;102010.00;;;16.92;73.22
71976;BME280;60680;52.182;5.398;2022-07-23T06:44:03;102012.28;;;16.99;73.89
71976;BME280;60680;52.182;5.398;2022-07-23T06:46:29;102014.72;;;17.02;73.47
71976;BME280;60680;52.182;5.398;2022-07-23T06:48:56;102014.31;;;16.94;73.50
71976;BME280;60680;52.182;5.398;2022-07-23T06:51:22;102028.31;;;16.94;73.12
71976;BME280;60680;52.182;5.398;2022-07-23T06:53:49;102022.78;;;16.99;72.84
71976;BME280;60680;52.182;5.398;2022-07-23T06:56:15;102026.75;;;17.06;72.07
71976;BME280;60680;52.182;5.398;2022-07-23T06:58:42;102025.28;;;17.16;71.24
71976;BME280;60680;52.182;5.398;2022-07-23T07:01:08;102028.22;;;17.26;71.45
71976;BME280;60680;52.182;5.398;2022-07-23T07:03:35;102027.34;;;17.25;68.85
71976;BME280;60680;52.182;5.398;2022-07-23T07:06:02;102031.31;;;17.32;68.79
71976;BME280;60680;52.182;5.398;2022-07-23T07:08:29;102030.75;;;17.42;68.82
71976;BME280;60680;52.182;5.398;2022-07-23T07:10:55;102024.38;;;17.46;68.12
71976;BME280;60680;52.182;5.398;2022-07-23T07:13:22;102029.34;;;17.50;68.23
71976;BME280;60680;52.182;5.398;2022-07-23T07:15:48;102032.56;;;17.56;67.55
71976;BME280;60680;52.182;5.398;2022-07-23T07:18:14;102033.19;;;17.59;67.78
71976;BME280;60680;52.182;5.398;2022-07-23T07:20:41;102033.50;;;17.69;67.07
71976;BME280;60680;52.182;5.398;2022-07-23T07:23:07;102035.22;;;17.84;66.98
71976;BME280;60680;52.182;5.398;2022-07-23T07:25:34;102036.22;;;17.82;67.71
71976;BME280;60680;52.182;5.398;2022-07-23T07:28:01;102041.22;;;17.86;67.67
71976;BME280;60680;52.182;5.398;2022-07-23T07:30:28;102038.59;;;17.86;66.96
71976;BME280;60680;52.182;5.398;2022-07-23T07:32:59;102045.44;;;17.75;66.65
71976;BME280;60680;52.182;5.398;2022-07-23T07:35:26;102048.22;;;17.87;67.08
71976;BME280;60680;52.182;5.398;2022-07-23T07:37:53;102042.72;;;17.90;66.50
71976;BME280;60680;52.182;5.398;2022-07-23T07:40:19;102036.50;;;18.06;66.32
71976;BME280;60680;52.182;5.398;2022-07-23T07:42:51;102042.03;;;18.16;65.64
71976;BME280;60680;52.182;5.398;2022-07-23T07:45:22;102050.19;;;18.25;65.55
71976;BME280;60680;52.182;5.398;2022-07-23T07:47:50;102054.25;;;18.31;65.34
71976;BME280;60680;52.182;5.398;2022-07-23T07:50:19;102052.25;;;18.34;65.06
71976;BME280;60680;52.182;5.398;2022-07-23T07:52:47;102055.13;;;18.44;64.87
71976;BME280;60680;52.182;5.398;2022-07-23T07:55:14;102055.50;;;18.52;64.83
71976;BME280;60680;52.182;5.398;2022-07-23T07:57:43;102062.25;;;18.57;63.53
71976;BME280;60680;52.182;5.398;2022-07-23T08:00:15;102052.91;;;18.65;64.15
71976;BME280;60680;52.182;5.398;2022-07-23T08:02:50;102053.47;;;18.70;64.50
71976;BME280;60680;52.182;5.398;2022-07-23T08:05:21;102055.53;;;18.80;64.27
71976;BME280;60680;52.182;5.398;2022-07-23T08:07:54;102062.19;;;18.85;62.49
71976;BME280;60680;52.182;5.398;2022-07-23T08:10:23;102066.72;;;18.83;62.83
71976;BME280;60680;52.182;5.398;2022-07-23T08:12:52;102060.81;;;18.92;61.34
71976;BME280;60680;52.182;5.398;2022-07-23T08:15:29;102063.81;;;19.01;61.19
71976;BME280;60680;52.182;5.398;2022-07-23T08:17:57;102065.19;;;19.06;60.23
71976;BME280;60680;52.182;5.398;2022-07-23T08:20:25;102061.25;;;18.99;60.56
71976;BME280;60680;52.182;5.398;2022-07-23T08:22:59;102063.94;;;19.12;60.34
71976;BME280;60680;52.182;5.398;2022-07-23T08:25:28;102071.44;;;19.18;60.58
71976;BME280;60680;52.182;5.398;2022-07-23T08:27:58;102067.31;;;19.14;61.22
71976;BME280;60680;52.182;5.398;2022-07-23T08:30:25;102066.06;;;19.20;61.38
71976;BME280;60680;52.182;5.398;2022-07-23T08:32:57;102059.72;;;19.35;61.42
71976;BME280;60680;52.182;5.398;2022-07-23T08:35:37;102062.19;;;19.51;60.72
71976;BME280;60680;52.182;5.398;2022-07-23T08:38:06;102064.69;;;19.52;61.00
71976;BME280;60680;52.182;5.398;2022-07-23T08:40:36;102065.03;;;19.61;61.74
71976;BME280;60680;52.182;5.398;2022-07-23T08:43:12;102062.38;;;19.61;60.61
71976;BME280;60680;52.182;5.398;2022-07-23T08:45:41;102059.84;;;19.59;60.67
71976;BME280;60680;52.182;5.398;2022-07-23T08:48:14;102060.38;;;19.64;59.95
71976;BME280;60680;52.182;5.398;2022-07-23T08:50:44;102066.91;;;19.59;59.68
71976;BME280;60680;52.182;5.398;2022-07-23T08:53:12;102065.34;;;19.69;59.53
71976;BME280;60680;52.182;5.398;2022-07-23T08:55:39;102058.50;;;19.79;59.95
71976;BME280;60680;52.182;5.398;2022-07-23T08:58:05;102063.44;;;19.96;59.07
71976;BME280;60680;52.182;5.398;2022-07-23T09:00:32;102063.34;;;19.98;57.92
71976;BME280;60680;52.182;5.398;2022-07-23T09:02:59;102060.69;;;19.98;58.52
71976;BME280;60680;52.182;5.398;2022-07-23T09:05:25;102066.03;;;20.09;58.77
71976;BME280;60680;52.182;5.398;2022-07-23T09:08:11;102070.06;;;20.15;59.41
71976;BME280;60680;52.182;5.398;2022-07-23T09:10:59;102067.81;;;20.22;58.92
71976;BME280;60680;52.182;5.398;2022-07-23T09:13:32;102068.56;;;20.24;58.52
71976;BME280;60680;52.182;5.398;2022-07-23T09:16:25;102065.63;;;20.40;58.57
71976;BME280;60680;52.182;5.398;2022-07-23T09:18:54;102067.97;;;20.31;57.58
71976;BME280;60680;52.182;5.398;2022-07-23T09:24:12;102075.88;;;20.44;58.98
71976;BME280;60680;52.182;5.398;2022-07-23T09:26:44;102072.91;;;20.49;57.79
71976;BME280;60680;52.182;5.398;2022-07-23T09:29:22;102070.88;;;20.52;56.90
71976;BME280;60680;52.182;5.398;2022-07-23T09:31:57;102074.56;;;20.63;57.12
71976;BME280;60680;52.182;5.398;2022-07-23T09:34:26;102070.34;;;20.60;56.84
71976;BME280;60680;52.182;5.398;2022-07-23T09:36:58;102080.69;;;20.63;55.95
71976;BME280;60680;52.182;5.398;2022-07-23T09:39:35;102072.44;;;20.68;55.75
71976;BME280;60680;52.182;5.398;2022-07-23T09:42:17;102085.53;;;20.69;56.20
71976;BME280;60680;52.182;5.398;2022-07-23T09:44:45;102083.28;;;20.76;56.07
71976;BME280;60680;52.182;5.398;2022-07-23T09:47:13;102083.53;;;20.73;55.45
71976;BME280;60680;52.182;5.398;2022-07-23T09:49:40;102082.06;;;20.69;53.62
71976;BME280;60680;52.182;5.398;2022-07-23T09:52:06;102078.28;;;20.84;55.06
71976;BME280;60680;52.182;5.398;2022-07-23T09:54:35;102081.44;;;20.89;54.54
71976;BME280;60680;52.182;5.398;2022-07-23T09:57:05;102075.44;;;20.98;53.88
71976;BME280;60680;52.182;5.398;2022-07-23T09:59:38;102082.94;;;21.05;53.26
71976;BME280;60680;52.182;5.398;2022-07-23T10:02:07;102083.19;;;21.13;53.43
71976;BME280;60680;52.182;5.398;2022-07-23T10:04:35;102077.31;;;21.21;52.40
71976;BME280;60680;52.182;5.398;2022-07-23T10:07:05;102079.94;;;21.21;52.15
71976;BME280;60680;52.182;5.398;2022-07-23T10:09:42;102076.81;;;21.15;51.73
71976;BME280;60680;52.182;5.398;2022-07-23T10:12:14;102080.47;;;21.26;52.27
71976;BME280;60680;52.182;5.398;2022-07-23T10:14:44;102078.19;;;21.32;49.39
71976;BME280;60680;52.182;5.398;2022-07-23T10:17:11;102077.19;;;21.22;50.10
71976;BME280;60680;52.182;5.398;2022-07-23T10:19:38;102071.91;;;21.22;51.08
71976;BME280;60680;52.182;5.398;2022-07-23T10:22:08;102067.97;;;21.39;52.20
71976;BME280;60680;52.182;5.398;2022-07-23T10:30:36;102071.25;;;21.54;51.47
71976;BME280;60680;52.182;5.398;2022-07-23T10:33:27;102068.41;;;21.57;52.28
71976;BME280;60680;52.182;5.398;2022-07-23T10:36:04;102075.00;;;21.63;51.75
71976;BME280;60680;52.182;5.398;2022-07-23T10:38:51;102075.00;;;21.74;51.26
71976;BME280;60680;52.182;5.398;2022-07-23T10:41:40;102070.56;;;21.86;51.37
71976;BME280;60680;52.182;5.398;2022-07-23T10:44:18;102068.38;;;21.91;51.19
71976;BME280;60680;52.182;5.398;2022-07-23T10:47:00;102068.63;;;21.88;50.11
71976;BME280;60680;52.182;5.398;2022-07-23T10:49:45;102071.41;;;21.86;50.40
71976;BME280;60680;52.182;5.398;2022-07-23T10:54:55;102063.22;;;21.89;50.02
71976;BME280;60680;52.182;5.398;2022-07-23T10:57:27;102058.88;;;21.88;49.41
71976;BME280;60680;52.182;5.398;2022-07-23T11:00:15;102059.81;;;21.98;50.27
71976;BME280;60680;52.182;5.398;2022-07-23T11:02:44;102066.69;;;21.90;49.91
71976;BME280;60680;52.182;5.398;2022-07-23T11:05:17;102067.41;;;22.14;49.70
71976;BME280;60680;52.182;5.398;2022-07-23T11:16:04;102059.09;;;22.63;50.86
71976;BME280;60680;52.182;5.398;2022-07-23T11:32:39;102056.44;;;23.16;47.79
71976;BME280;60680;52.182;5.398;2022-07-23T11:34:49;102059.31;;;23.24;49.24
71976;BME280;60680;52.182;5.398;2022-07-23T11:37:38;102051.66;;;23.31;47.50
71976;BME280;60680;52.182;5.398;2022-07-23T11:40:11;102058.16;;;23.17;47.53
71976;BME280;60680;52.182;5.398;2022-07-23T11:42:41;102058.19;;;23.27;48.38
71976;BME280;60680;52.182;5.398;2022-07-23T11:45:16;102051.00;;;23.38;47.78
71976;BME280;60680;52.182;5.398;2022-07-23T11:47:43;102053.16;;;23.54;48.92
71976;BME280;60680;52.182;5.398;2022-07-23T11:50:09;102059.66;;;23.61;46.73
71976;BME280;60680;52.182;5.398;2022-07-23T11:52:36;102060.91;;;23.67;47.72
71976;BME280;60680;52.182;5.398;2022-07-23T11:55:05;102060.72;;;23.49;46.66
71976;BME280;60680;52.182;5.398;2022-07-23T11:57:34;102062.13;;;23.53;46.24
71976;BME280;60680;52.182;5.398;2022-07-23T12:00:12;102052.66;;;23.60;47.15
71976;BME280;60680;52.182;5.398;2022-07-23T12:02:44;102059.66;;;23.61;46.00
71976;BME280;60680;52.182;5.398;2022-07-23T12:05:13;102055.59;;;23.67;46.46
71976;BME280;60680;52.182;5.398;2022-07-23T12:07:42;102050.38;;;23.77;46.91
71976;BME280;60680;52.182;5.398;2022-07-23T12:10:17;102053.63;;;23.80;45.94
71976;BME280;60680;52.182;5.398;2022-07-23T12:12:46;102052.38;;;23.85;45.84
71976;BME280;60680;52.182;5.398;2022-07-23T12:15:14;102047.88;;;23.85;45.27
71976;BME280;60680;52.182;5.398;2022-07-23T12:17:44;102043.44;;;23.65;46.09
71976;BME280;60680;52.182;5.398;2022-07-23T12:20:19;102041.59;;;23.65;45.15
71976;BME280;60680;52.182;5.398;2022-07-23T12:22:49;102038.66;;;23.89;46.99
71976;BME280;60680;52.182;5.398;2022-07-23T12:25:21;102037.59;;;24.11;46.51
71976;BME280;60680;52.182;5.398;2022-07-23T12:28:11;102032.59;;;24.28;47.24
71976;BME280;60680;52.182;5.398;2022-07-23T12:30:46;102028.38;;;24.35;46.08
71976;BME280;60680;52.182;5.398;2022-07-23T12:33:20;102022.66;;;24.30;45.65
71976;BME280;60680;52.182;5.398;2022-07-23T12:35:48;102027.53;;;24.34;46.20
71976;BME280;60680;52.182;5.398;2022-07-23T12:38:17;102032.22;;;24.52;46.44
71976;BME280;60680;52.182;5.398;2022-07-23T12:43:19;102030.81;;;24.57;45.82
71976;BME280;60680;52.182;5.398;2022-07-23T12:45:51;102023.81;;;24.66;46.31
71976;BME280;60680;52.182;5.398;2022-07-23T12:50:54;102029.81;;;24.88;45.10
71976;BME280;60680;52.182;5.398;2022-07-23T12:53:32;102024.31;;;24.99;45.68
71976;BME280;60680;52.182;5.398;2022-07-23T12:56:14;102028.25;;;25.05;45.55
71976;BME280;60680;52.182;5.398;2022-07-23T12:58:50;102024.38;;;24.70;45.47
71976;BME280;60680;52.182;5.398;2022-07-23T13:01:39;102022.38;;;24.52;46.31
71976;BME280;60680;52.182;5.398;2022-07-23T13:06:54;102018.03;;;24.90;45.50
71976;BME280;60680;52.182;5.398;2022-07-23T13:09:26;102016.63;;;25.06;45.73
71976;BME280;60680;52.182;5.398;2022-07-23T13:11:58;102017.97;;;25.10;45.97
71976;BME280;60680;52.182;5.398;2022-07-23T13:14:26;102024.16;;;25.10;45.95
71976;BME280;60680;52.182;5.398;2022-07-23T13:16:53;102024.75;;;24.94;45.38
71976;BME280;60680;52.182;5.398;2022-07-23T13:19:23;102026.28;;;25.07;45.98
71976;BME280;60680;52.182;5.398;2022-07-23T13:21:51;102027.41;;;24.94;44.22
71976;BME280;60680;52.182;5.398;2022-07-23T13:24:18;102025.22;;;24.70;44.97
71976;BME280;60680;52.182;5.398;2022-07-23T13:26:45;102021.53;;;24.42;46.17
71976;BME280;60680;52.182;5.398;2022-07-23T13:29:13;102031.78;;;24.56;45.90
71976;BME280;60680;52.182;5.398;2022-07-23T13:31:42;102016.22;;;24.81;45.71
71976;BME280;60680;52.182;5.398;2022-07-23T13:34:09;102017.88;;;25.01;45.92
71976;BME280;60680;52.182;5.398;2022-07-23T13:36:36;102016.00;;;25.12;44.97
71976;BME280;60680;52.182;5.398;2022-07-23T13:39:03;102016.88;;;25.12;45.05
71976;BME280;60680;52.182;5.398;2022-07-23T13:41:32;102010.97;;;25.28;45.20